Time;durP1;ratioP1;P1;durP2;ratioP2;P2;SDS_P1;SDS_P2;PMS_P1;PMS_P2;Temp;Humidity;BMP_temperature;BMP_pressure;BME280_temperature;BME280_humidity;BME280_pressure;Samples;Min_cycle;Max_cycle;Signal;HPM_P1;HPM_P2
2022/09/24 00:01:40;;;;;;;3.08;2.25;;;26.90;99.60;;;;;;5068540;28;20111;-80
2022/09/24 00:04:11;;;;;;;2.80;1.80;;;26.70;98.20;;;;;;5067923;28;20029;-80
2022/09/24 00:06:43;;;;;;;3.53;2.33;;;26.90;99.80;;;;;;5070969;28;20081;-81
2022/09/24 00:09:12;;;;;;;3.60;1.52;;;27.40;99.20;;;;;;5065713;28;20037;-80
2022/09/24 00:11:41;;;;;;;2.47;1.85;;;27.70;98.30;;;;;;5064971;28;20036;-82
2022/09/24 00:14:09;;;;;;;1.67;1.10;;;28.20;97.00;;;;;;5057078;28;20051;-83
2022/09/24 00:16:38;;;;;;;1.05;0.80;;;28.50;96.30;;;;;;5079036;28;20472;-84
2022/09/24 00:19:06;;;;;;;1.17;0.52;;;28.80;94.50;;;;;;5081431;28;20020;-81
2022/09/24 00:21:36;;;;;;;0.82;0.70;;;28.70;94.90;;;;;;5086665;28;20025;-82
2022/09/24 00:26:48;;;;;;;1.25;0.85;;;29.10;92.70;;;;;;5073998;28;20479;-85
2022/09/24 00:27:01;;;;;;;1.25;0.98;;;29.00;93.90;;;;;;5068686;28;20479;-87
2022/09/24 00:29:32;;;;;;;0.82;0.50;;;29.10;91.90;;;;;;5077500;28;20653;-82
2022/09/24 00:32:00;;;;;;;0.80;0.40;;;29.00;92.60;;;;;;5062491;28;20411;-85
2022/09/24 00:34:28;;;;;;;0.43;0.40;;;29.40;91.50;;;;;;5086153;28;20050;-84
2022/09/24 00:36:56;;;;;;;0.35;0.30;;;29.50;91.00;;;;;;5062483;28;20541;-86
2022/09/24 00:39:23;;;;;;;0.50;0.40;;;29.50;90.60;;;;;;5071206;28;20035;-81
2022/09/24 00:41:50;;;;;;;1.75;0.45;;;29.70;91.10;;;;;;5067820;28;21003;-81
2022/09/24 00:44:39;;;;;;;0.35;0.35;;;29.60;89.70;;;;;;5077764;28;20020;-82
2022/09/24 00:47:11;;;;;;;0.63;0.60;;;29.30;89.30;;;;;;5052397;28;20021;-83
2022/09/24 00:49:39;;;;;;;0.60;0.50;;;28.30;88.50;;;;;;5062008;28;20024;-85
2022/09/24 00:52:08;;;;;;;0.60;0.50;;;27.40;90.50;;;;;;5064012;28;20017;-81
2022/09/24 00:54:36;;;;;;;0.73;0.30;;;26.30;91.40;;;;;;5061072;28;20037;-83
2022/09/24 00:57:03;;;;;;;0.73;0.40;;;25.60;92.10;;;;;;5069362;28;20029;-88
2022/09/24 00:59:33;;;;;;;0.52;0.30;;;25.00;93.00;;;;;;5054619;28;20032;-89
2022/09/24 01:02:02;;;;;;;0.47;0.40;;;24.30;93.40;;;;;;5070430;28;20096;-80
2022/09/24 01:04:30;;;;;;;0.73;0.40;;;23.80;93.70;;;;;;5063699;28;20025;-87
2022/09/24 01:06:58;;;;;;;0.52;0.38;;;23.40;93.80;;;;;;5059432;28;20116;-89
2022/09/24 01:09:27;;;;;;;1.17;0.70;;;22.90;94.30;;;;;;5076613;28;20017;-85
2022/09/24 01:12:10;;;;;;;0.70;0.60;;;22.60;95.10;;;;;;5080360;28;20028;-85
2022/09/24 01:15:05;;;;;;;0.77;0.47;;;22.30;95.70;;;;;;5082897;28;20399;-93
2022/09/24 01:17:39;;;;;;;0.85;0.50;;;22.10;95.10;;;;;;5046653;28;20590;-90
2022/09/24 01:20:38;;;;;;;0.50;0.40;;;22.00;95.50;;;;;;5079733;28;20333;-88
2022/09/24 01:23:44;;;;;;;1.75;0.75;;;22.20;96.30;;;;;;5069673;28;20482;-88
2022/09/24 01:26:36;;;;;;;0.60;0.52;;;22.60;96.60;;;;;;5035019;28;20036;-86
2022/09/24 01:29:24;;;;;;;0.80;0.50;;;22.90;95.40;;;;;;5074953;28;20028;-84
2022/09/24 01:32:00;;;;;;;0.55;0.30;;;22.90;94.90;;;;;;5075086;28;20098;-93
2022/09/24 01:34:40;;;;;;;0.60;0.40;;;23.20;94.90;;;;;;5057115;28;20147;-85
2022/09/24 01:37:08;;;;;;;0.65;0.43;;;23.20;95.10;;;;;;5056526;28;20517;-85
2022/09/24 01:39:38;;;;;;;1.05;0.68;;;23.10;94.10;;;;;;5062104;28;20024;-83
2022/09/24 01:42:08;;;;;;;0.82;0.50;;;23.10;93.90;;;;;;5056876;28;20025;-82
2022/09/24 01:44:36;;;;;;;0.65;0.40;;;23.30;94.50;;;;;;5058969;28;20025;-87
2022/09/24 01:47:05;;;;;;;0.65;0.65;;;23.60;94.80;;;;;;5071381;28;20036;-90
2022/09/24 01:49:33;;;;;;;0.55;0.40;;;23.60;95.10;;;;;;5066647;28;20035;-84
2022/09/24 01:52:06;;;;;;;0.45;0.45;;;23.80;95.20;;;;;;5066560;28;20111;-87
2022/09/24 01:54:49;;;;;;;0.75;0.50;;;23.80;94.40;;;;;;5057918;28;20056;-83
2022/09/24 01:57:35;;;;;;;1.08;0.47;;;23.70;93.30;;;;;;5069568;28;20447;-85
2022/09/24 02:00:08;;;;;;;0.80;0.60;;;24.20;94.10;;;;;;5079805;28;20047;-88
2022/09/24 02:02:44;;;;;;;0.90;0.70;;;24.40;93.00;;;;;;5065487;28;20028;-91
2022/09/24 02:05:28;;;;;;;;;;;24.60;93.10;;;;;;5061580;28;20029;-82
2022/09/24 02:08:02;;;;;;;1.45;0.60;;;24.60;92.50;;;;;;5068182;28;20363;-89
2022/09/24 02:10:34;;;;;;;0.70;0.40;;;24.40;93.10;;;;;;5060431;28;20054;-85
2022/09/24 02:13:06;;;;;;;0.60;0.50;;;24.30;92.50;;;;;;5070396;28;20029;-84
2022/09/24 02:15:38;;;;;;;0.60;0.40;;;24.20;93.20;;;;;;5059916;28;20033;-87
2022/09/24 02:18:11;;;;;;;1.13;0.50;;;23.90;93.30;;;;;;5077451;28;20029;-83
2022/09/24 02:20:41;;;;;;;1.00;0.68;;;23.70;94.10;;;;;;5074550;28;20096;-86
2022/09/24 02:23:10;;;;;;;0.52;0.40;;;23.80;94.30;;;;;;5073491;28;20025;-82
2022/09/24 02:25:47;;;;;;;0.68;0.50;;;23.90;94.40;;;;;;5066193;28;20052;-83
2022/09/24 02:28:15;;;;;;;0.77;0.50;;;23.90;94.40;;;;;;5063836;28;20025;-80
2022/09/24 02:30:56;;;;;;;1.45;0.55;;;23.80;94.00;;;;;;5063739;28;20021;-89
2022/09/24 02:36:11;;;;;;;0.82;0.70;;;23.50;94.20;;;;;;5075527;28;20519;-82
2022/09/24 02:38:39;;;;;;;0.75;0.68;;;23.30;94.30;;;;;;5074373;28;20036;-93
2022/09/24 02:41:07;;;;;;;0.90;0.45;;;23.00;94.60;;;;;;5058906;28;20029;-88
2022/09/24 02:43:35;;;;;;;1.95;0.55;;;23.00;94.40;;;;;;5059523;28;20111;-81
2022/09/24 02:46:03;;;;;;;1.33;0.70;;;22.90;94.90;;;;;;5068533;28;20155;-91
2022/09/24 02:48:30;;;;;;;0.88;0.50;;;22.90;94.40;;;;;;5071574;28;20106;-86
2022/09/24 02:50:58;;;;;;;1.45;0.50;;;22.70;94.80;;;;;;5068600;28;20028;-90
2022/09/24 02:53:25;;;;;;;0.82;0.55;;;22.60;94.80;;;;;;5078491;28;20036;-86
2022/09/24 02:55:53;;;;;;;1.15;0.73;;;22.40;95.20;;;;;;5078690;28;20040;-90
2022/09/24 02:58:20;;;;;;;1.02;0.60;;;22.20;95.30;;;;;;5069640;28;20024;-92
2022/09/24 03:00:49;;;;;;;1.05;0.50;;;22.10;95.50;;;;;;5074822;28;20021;-88
2022/09/24 03:03:16;;;;;;;1.15;0.63;;;22.00;95.70;;;;;;5059758;28;20037;-85
2022/09/24 03:05:44;;;;;;;1.00;0.60;;;21.90;95.40;;;;;;5064047;28;20029;-79
2022/09/24 03:08:12;;;;;;;1.85;0.60;;;21.70;95.20;;;;;;5054300;28;20032;-81
2022/09/24 03:10:39;;;;;;;3.97;0.90;;;21.50;96.20;;;;;;5048030;28;20029;-76
2022/09/24 03:13:06;;;;;;;13.52;1.25;;;21.30;98.90;;;;;;5056826;28;20059;-83
2022/09/24 03:15:34;;;;;;;3.65;1.10;;;20.90;99.90;;;;;;5068134;28;20036;-84
2022/09/24 03:18:02;;;;;;;3.05;0.80;;;20.30;99.90;;;;;;5062177;28;20571;-83
2022/09/24 03:20:30;;;;;;;3.03;1.00;;;19.80;99.90;;;;;;5052979;28;20086;-80
2022/09/24 03:22:57;;;;;;;1.42;0.98;;;19.40;99.90;;;;;;5057637;28;20549;-80
2022/09/24 03:25:26;;;;;;;1.50;0.60;;;19.10;99.90;;;;;;5054788;28;20045;-84
2022/09/24 03:27:53;;;;;;;1.20;0.70;;;18.90;99.90;;;;;;5056799;28;20119;-83
2022/09/24 03:33:06;;;;;;;2.60;1.48;;;18.60;99.90;;;;;;5054611;28;20563;-79
2022/09/24 03:35:33;;;;;;;1.98;1.58;;;18.60;99.90;;;;;;5054406;28;20051;-80
2022/09/24 03:38:01;;;;;;;3.28;1.45;;;18.70;99.90;;;;;;5060416;28;20017;-85
2022/09/24 03:40:28;;;;;;;2.83;1.30;;;18.70;99.90;;;;;;5055668;28;20037;-81
2022/09/24 03:42:55;;;;;;;4.35;1.85;;;18.70;99.90;;;;;;5070791;28;20028;-78
2022/09/24 03:45:23;;;;;;;4.07;1.70;;;18.60;99.90;;;;;;5057114;28;20051;-87
2022/09/24 03:47:50;;;;;;;2.13;1.50;;;18.70;99.90;;;;;;5057630;28;20020;-82
2022/09/24 03:50:18;;;;;;;3.80;2.35;;;18.70;99.90;;;;;;5072601;28;20097;-89
2022/09/24 03:52:45;;;;;;;1.77;1.17;;;18.70;99.90;;;;;;5054790;28;20032;-85
2022/09/24 03:55:12;;;;;;;2.78;0.75;;;18.70;99.90;;;;;;5057477;28;20166;-86
2022/09/24 03:57:40;;;;;;;2.53;0.73;;;18.70;99.90;;;;;;5064025;28;20055;-90
2022/09/24 04:00:08;;;;;;;2.30;0.80;;;18.60;99.90;;;;;;5069423;28;20024;-85
2022/09/24 04:02:35;;;;;;;1.83;0.65;;;18.70;99.90;;;;;;5071789;28;20028;-88
2022/09/24 04:05:02;;;;;;;1.90;0.93;;;18.70;99.90;;;;;;5068956;28;20403;-86
2022/09/24 04:07:30;;;;;;;2.88;0.90;;;18.90;99.90;;;;;;5064272;28;20032;-88
2022/09/24 04:09:57;;;;;;;2.08;0.95;;;19.10;99.90;;;;;;5056227;28;20025;-86
2022/09/24 04:12:25;;;;;;;2.75;0.68;;;19.10;99.90;;;;;;5060315;28;20020;-89
2022/09/24 04:14:52;;;;;;;3.50;1.17;;;19.00;99.90;;;;;;5063491;28;20044;-84
2022/09/24 04:17:20;;;;;;;0.70;0.40;;;18.90;99.90;;;;;;5068088;28;20029;-88
2022/09/24 04:19:47;;;;;;;2.17;0.60;;;18.90;99.90;;;;;;5074045;28;20033;-86
2022/09/24 04:22:15;;;;;;;2.90;0.60;;;19.00;99.90;;;;;;5062419;28;20068;-76
2022/09/24 04:24:42;;;;;;;1.15;0.50;;;19.50;99.90;;;;;;5071228;28;20092;-79
2022/09/24 04:27:10;;;;;;;5.28;1.02;;;20.10;99.90;;;;;;5076018;28;20017;-84
2022/09/24 04:29:37;;;;;;;0.77;0.30;;;20.40;99.90;;;;;;5068366;28;20044;-89
2022/09/24 04:32:04;;;;;;;0.45;0.25;;;20.80;99.90;;;;;;5066159;28;20032;-88
2022/09/24 04:34:32;;;;;;;0.73;0.40;;;21.10;99.90;;;;;;5068035;28;20052;-84
2022/09/24 04:36:59;;;;;;;2.40;0.45;;;20.90;99.90;;;;;;5059480;28;20052;-83
2022/09/24 04:39:27;;;;;;;7.47;0.50;;;20.60;99.90;;;;;;5066880;28;20032;-89
2022/09/24 04:41:54;;;;;;;2.00;0.50;;;20.10;99.90;;;;;;5064816;28;20088;-90
2022/09/24 04:44:22;;;;;;;2.10;0.70;;;19.80;99.90;;;;;;5071275;28;20379;-88
2022/09/24 04:46:50;;;;;;;2.70;0.40;;;19.80;99.90;;;;;;5067926;28;20024;-88
2022/09/24 04:49:17;;;;;;;0.35;0.30;;;19.70;99.90;;;;;;5079473;28;20432;-91
2022/09/24 04:51:44;;;;;;;1.42;0.45;;;19.70;99.90;;;;;;5063039;28;20163;-90
2022/09/24 04:54:12;;;;;;;4.78;1.05;;;19.60;99.90;;;;;;5062725;28;20029;-82
2022/09/24 04:56:39;;;;;;;1.75;0.30;;;19.60;99.90;;;;;;5065587;28;20033;-86
2022/09/24 04:59:06;;;;;;;1.08;0.65;;;19.60;99.90;;;;;;5062091;28;20021;-90
2022/09/24 05:01:34;;;;;;;0.80;0.52;;;19.60;99.90;;;;;;5077749;28;20082;-86
2022/09/24 05:04:02;;;;;;;2.97;0.45;;;19.60;99.90;;;;;;5066137;28;20024;-87
2022/09/24 05:06:33;;;;;;;1.65;0.45;;;19.60;99.90;;;;;;5061688;28;20048;-90
2022/09/24 05:09:00;;;;;;;3.08;0.55;;;19.70;99.90;;;;;;5068284;28;20029;-88
2022/09/24 05:11:31;;;;;;;0.70;0.20;;;19.80;99.90;;;;;;5065066;28;20020;-83
2022/09/24 05:13:58;;;;;;;2.60;1.15;;;20.00;99.90;;;;;;5075562;28;20044;-83
2022/09/24 05:16:26;;;;;;;1.33;0.40;;;20.20;99.90;;;;;;5058068;28;20039;-91
2022/09/24 05:18:53;;;;;;;3.33;0.50;;;20.40;99.90;;;;;;5073623;28;20585;-85
2022/09/24 05:21:21;;;;;;;0.40;0.20;;;20.30;99.90;;;;;;5074761;28;20024;-85
2022/09/24 05:23:48;;;;;;;0.55;0.20;;;20.20;99.90;;;;;;5073910;28;20025;-88
2022/09/24 05:29:01;;;;;;;2.33;0.85;;;20.00;99.90;;;;;;5074804;28;20035;-85
2022/09/24 05:31:28;;;;;;;4.68;0.40;;;20.00;99.90;;;;;;5074390;28;20124;-88
2022/09/24 05:33:56;;;;;;;0.38;0.20;;;20.10;99.90;;;;;;5058421;28;20041;-84
2022/09/24 05:36:25;;;;;;;0.57;0.30;;;20.20;99.90;;;;;;5073869;28;20024;-85
2022/09/24 05:38:56;;;;;;;1.85;0.30;;;20.30;99.90;;;;;;5064033;28;20090;-83
2022/09/24 05:41:23;;;;;;;3.50;0.47;;;20.40;99.90;;;;;;5059462;28;20024;-86
2022/09/24 05:43:51;;;;;;;1.75;0.63;;;20.30;99.90;;;;;;5075725;28;20483;-88
2022/09/24 05:46:18;;;;;;;1.08;0.43;;;20.00;99.90;;;;;;5071529;28;20020;-87
2022/09/24 05:48:45;;;;;;;2.65;0.40;;;19.70;99.90;;;;;;5065535;28;20052;-86
2022/09/24 05:51:13;;;;;;;4.07;0.55;;;19.40;99.90;;;;;;5063217;28;20036;-85
2022/09/24 05:53:40;;;;;;;2.50;0.40;;;19.10;99.90;;;;;;5076371;28;20040;-83
2022/09/24 05:56:09;;;;;;;0.63;0.30;;;19.20;99.90;;;;;;5053413;28;20032;-83
2022/09/24 05:58:37;;;;;;;2.35;0.50;;;19.40;99.90;;;;;;5058389;28;20020;-84
2022/09/24 06:01:04;;;;;;;3.38;0.43;;;19.50;99.90;;;;;;5058841;28;20151;-84
2022/09/24 06:03:31;;;;;;;0.70;0.30;;;19.60;99.90;;;;;;5062837;28;20016;-85
2022/09/24 06:06:00;;;;;;;1.33;0.60;;;19.70;99.90;;;;;;5059632;28;20059;-83
2022/09/24 06:08:30;;;;;;;2.28;0.47;;;19.80;99.90;;;;;;5070454;28;20131;-86
2022/09/24 06:11:01;;;;;;;1.77;0.38;;;19.80;99.90;;;;;;5072043;28;20033;-83
2022/09/24 06:13:30;;;;;;;2.47;0.40;;;20.00;99.90;;;;;;5067613;28;20048;-84
2022/09/24 06:16:06;;;;;;;0.85;0.50;;;20.20;99.90;;;;;;5070875;28;20016;-82
2022/09/24 06:18:35;;;;;;;1.17;0.50;;;20.30;99.90;;;;;;5071974;28;20536;-86
2022/09/24 06:21:06;;;;;;;1.20;0.55;;;20.30;99.90;;;;;;5063876;28;20021;-87
2022/09/24 06:23:34;;;;;;;0.82;0.38;;;20.20;99.90;;;;;;5054749;28;20659;-85
2022/09/24 06:26:02;;;;;;;1.48;0.30;;;20.20;99.90;;;;;;5062640;28;20086;-87
2022/09/24 06:28:30;;;;;;;1.95;0.50;;;20.10;99.90;;;;;;5063494;28;20112;-85
2022/09/24 06:30:59;;;;;;;3.28;1.25;;;19.90;99.90;;;;;;5054375;28;20060;-82
2022/09/24 06:33:27;;;;;;;0.60;0.35;;;19.70;99.90;;;;;;5059999;28;20036;-86
2022/09/24 06:35:54;;;;;;;1.08;0.60;;;19.50;99.90;;;;;;5065192;28;20033;-88
2022/09/24 06:38:22;;;;;;;2.47;0.50;;;19.30;99.90;;;;;;5068917;28;20104;-87
2022/09/24 06:40:49;;;;;;;1.45;0.80;;;19.00;99.90;;;;;;5068117;28;20389;-85
2022/09/24 06:43:17;;;;;;;2.88;0.43;;;18.60;99.90;;;;;;5057860;28;20016;-86
2022/09/24 06:45:44;;;;;;;2.70;0.75;;;18.30;99.90;;;;;;5074585;28;20162;-82
2022/09/24 06:48:13;;;;;;;1.08;0.60;;;18.10;99.90;;;;;;5063887;28;20059;-88
2022/09/24 06:50:43;;;;;;;0.93;0.50;;;18.00;99.90;;;;;;5060263;28;20056;-87
2022/09/24 06:53:12;;;;;;;2.35;0.70;;;17.80;99.90;;;;;;5059199;28;20071;-85
2022/09/24 06:55:39;;;;;;;1.35;0.73;;;17.70;99.90;;;;;;5060030;28;20112;-85
2022/09/24 06:58:16;;;;;;;2.38;0.70;;;17.60;99.90;;;;;;5066793;28;20107;-87
2022/09/24 07:00:52;;;;;;;1.95;0.60;;;17.50;99.90;;;;;;5062178;28;20028;-81
2022/09/24 07:03:20;;;;;;;2.33;1.23;;;17.40;99.90;;;;;;5069447;28;20021;-86
2022/09/24 07:05:47;;;;;;;3.40;2.03;;;17.30;99.90;;;;;;5069304;28;20037;-82
2022/09/24 07:08:15;;;;;;;2.75;1.13;;;17.30;99.90;;;;;;5070299;28;20021;-75
2022/09/24 07:10:48;;;;;;;3.22;1.83;;;17.20;99.90;;;;;;5061228;28;20041;-83
2022/09/24 07:13:16;;;;;;;4.55;1.50;;;17.10;99.90;;;;;;5066829;28;20037;-75
2022/09/24 07:15:44;;;;;;;3.08;1.25;;;17.10;99.90;;;;;;5053196;28;20056;-78
2022/09/24 07:18:12;;;;;;;5.43;2.00;;;16.90;99.90;;;;;;5060889;28;20024;-86
2022/09/24 07:20:40;;;;;;;3.85;1.63;;;16.80;99.90;;;;;;5063967;28;20475;-88
2022/09/24 07:23:10;;;;;;;3.78;1.40;;;16.70;99.90;;;;;;5058877;28;20040;-87
2022/09/24 07:25:38;;;;;;;3.20;1.45;;;16.70;99.90;;;;;;5058761;28;20530;-87
2022/09/24 07:28:08;;;;;;;4.65;1.35;;;16.70;99.90;;;;;;5062467;28;20067;-88
2022/09/24 07:30:38;;;;;;;3.35;1.05;;;16.60;99.90;;;;;;5080612;28;20024;-86
2022/09/24 07:33:08;;;;;;;4.88;1.95;;;16.50;99.90;;;;;;5074720;28;20041;-85
2022/09/24 07:35:38;;;;;;;2.13;1.15;;;16.50;99.90;;;;;;5061116;28;20480;-87
2022/09/24 07:38:08;;;;;;;4.93;1.20;;;16.50;99.90;;;;;;5070053;28;20032;-85
2022/09/24 07:40:35;;;;;;;1.63;0.98;;;16.50;99.90;;;;;;5070104;28;20085;-89
2022/09/24 07:43:03;;;;;;;2.90;1.63;;;16.40;99.90;;;;;;5075423;28;20116;-86
2022/09/24 07:45:31;;;;;;;2.33;0.98;;;16.30;99.90;;;;;;5088109;28;20012;-75
2022/09/24 07:48:03;;;;;;;2.22;1.38;;;16.30;99.90;;;;;;5085512;28;20553;-88
2022/09/24 07:50:33;;;;;;;13.45;6.30;;;16.20;99.90;;;;;;5073141;28;20025;-88
2022/09/24 07:53:00;;;;;;;14.95;7.32;;;16.20;99.90;;;;;;5074410;28;20033;-81
2022/09/24 07:55:28;;;;;;;11.93;6.55;;;16.10;99.90;;;;;;5095211;28;20032;-85
2022/09/24 07:57:56;;;;;;;8.80;3.55;;;16.10;99.90;;;;;;5092913;28;20035;-88
2022/09/24 08:00:24;;;;;;;3.88;2.25;;;16.10;99.90;;;;;;5085664;28;20032;-84
2022/09/24 08:02:55;;;;;;;2.75;1.85;;;16.10;99.90;;;;;;5087215;28;20144;-79
2022/09/24 08:05:22;;;;;;;2.03;1.20;;;16.00;99.90;;;;;;5079408;28;20021;-86
2022/09/24 08:07:54;;;;;;;5.88;1.50;;;16.00;99.90;;;;;;5086942;28;20039;-82
2022/09/24 08:10:23;;;;;;;1.95;1.20;;;16.00;99.90;;;;;;5086642;28;20008;-86
2022/09/24 08:12:50;;;;;;;3.28;1.35;;;16.00;99.90;;;;;;5070054;28;20426;-86
2022/09/24 08:15:18;;;;;;;2.65;1.30;;;15.90;99.90;;;;;;5069485;28;20039;-85
2022/09/24 08:17:46;;;;;;;3.55;1.55;;;15.80;99.90;;;;;;5074325;28;20032;-83
2022/09/24 08:20:13;;;;;;;7.20;2.00;;;15.90;99.90;;;;;;5071410;28;20496;-86
2022/09/24 08:22:40;;;;;;;2.60;1.27;;;15.80;99.90;;;;;;5054928;28;20115;-87
2022/09/24 08:25:08;;;;;;;3.05;2.08;;;15.90;99.90;;;;;;5066904;28;20032;-83
2022/09/24 08:27:36;;;;;;;3.95;2.13;;;15.80;99.90;;;;;;5054779;28;20025;-84
2022/09/24 08:30:05;;;;;;;6.70;2.85;;;15.90;99.90;;;;;;5056899;28;20044;-88
2022/09/24 08:32:32;;;;;;;5.40;3.55;;;15.90;99.90;;;;;;5052090;28;20086;-88
2022/09/24 08:35:00;;;;;;;5.90;4.10;;;15.90;99.90;;;;;;5062187;28;20094;-87
2022/09/24 08:37:28;;;;;;;5.55;3.50;;;15.90;99.90;;;;;;5067300;28;20028;-87
2022/09/24 08:39:56;;;;;;;8.07;3.85;;;15.80;99.90;;;;;;5075577;28;20063;-91
2022/09/24 08:42:49;;;;;;;6.10;3.85;;;15.90;99.90;;;;;;5067439;28;20024;-87
2022/09/24 08:48:20;;;;;;;12.00;6.90;;;15.80;99.90;;;;;;5070211;28;20042;-88
2022/09/24 08:51:01;;;;;;;9.17;6.20;;;15.70;99.90;;;;;;5068173;28;20037;-85
2022/09/24 08:53:49;;;;;;;7.93;4.25;;;15.70;99.90;;;;;;5059777;28;20036;-89
2022/09/24 08:56:31;;;;;;;9.90;5.28;;;15.70;99.90;;;;;;5058190;28;20115;-89
2022/09/24 08:59:23;;;;;;;9.77;5.70;;;15.70;99.90;;;;;;5066485;28;20025;-87
2022/09/24 09:01:50;;;;;;;11.02;5.68;;;15.70;99.90;;;;;;5059898;28;20039;-85
2022/09/24 09:04:27;;;;;;;6.95;4.18;;;15.60;99.90;;;;;;5075529;28;20110;-87
2022/09/24 09:07:19;;;;;;;7.18;3.70;;;15.60;99.90;;;;;;5075916;28;20031;-84
2022/09/24 09:10:15;;;;;;;4.85;2.53;;;15.50;99.90;;;;;;5071647;28;20032;-85
2022/09/24 09:12:47;;;;;;;4.30;2.33;;;15.40;99.90;;;;;;5070318;28;20054;-82
2022/09/24 09:15:35;;;;;;;3.63;2.10;;;15.30;99.90;;;;;;5075759;28;20788;-87
2022/09/24 09:18:16;;;;;;;5.30;2.78;;;15.30;99.90;;;;;;5066676;28;20043;-84
2022/09/24 09:20:48;;;;;;;5.22;2.78;;;15.20;99.90;;;;;;5066974;28;20048;-90
2022/09/24 09:23:20;;;;;;;5.28;4.00;;;15.20;99.90;;;;;;5068291;28;20031;-85
2022/09/24 09:25:57;;;;;;;5.20;3.60;;;15.10;99.90;;;;;;5089272;28;20490;-90
2022/09/24 09:28:26;;;;;;;4.50;2.92;;;15.00;99.90;;;;;;5053339;28;20375;-87
2022/09/24 09:30:59;;;;;;;5.07;3.47;;;15.00;99.90;;;;;;5075016;28;20032;-91
2022/09/24 09:33:38;;;;;;;5.95;3.65;;;15.00;99.90;;;;;;5053265;28;20136;-86
2022/09/24 09:36:27;;;;;;;5.80;2.97;;;14.90;99.90;;;;;;5063309;28;20036;-91
2022/09/24 09:39:04;;;;;;;4.45;2.92;;;14.90;99.90;;;;;;5070119;28;20033;-88
2022/09/24 09:41:35;;;;;;;4.80;2.80;;;14.80;99.90;;;;;;5068720;28;20062;-86
2022/09/24 09:44:38;;;;;;;5.97;3.15;;;14.80;99.90;;;;;;5060924;28;20082;-85
2022/09/24 09:47:25;;;;;;;6.97;3.60;;;14.80;99.90;;;;;;5062009;28;20067;-82
2022/09/24 09:49:57;;;;;;;6.25;4.38;;;14.80;99.90;;;;;;5041572;28;20043;-89
2022/09/24 09:52:28;;;;;;;5.78;2.90;;;14.70;99.90;;;;;;5078446;28;20103;-86
2022/09/24 09:54:56;;;;;;;5.10;3.30;;;14.60;99.90;;;;;;5058074;28;20033;-88
2022/09/24 09:57:25;;;;;;;10.25;5.43;;;14.60;99.90;;;;;;5079670;28;20364;-85
2022/09/24 09:59:56;;;;;;;5.78;4.22;;;14.60;99.90;;;;;;5055560;28;20029;-85
2022/09/24 10:02:32;;;;;;;6.07;3.35;;;14.50;99.90;;;;;;5053590;28;20040;-78
2022/09/24 10:05:02;;;;;;;5.07;2.78;;;14.50;99.90;;;;;;5056001;28;20038;-81
2022/09/24 10:07:30;;;;;;;5.50;3.70;;;14.40;99.90;;;;;;5058424;28;20052;-83
2022/09/24 10:10:12;;;;;;;5.93;3.97;;;14.40;99.90;;;;;;5054424;28;20028;-84
2022/09/24 10:12:39;;;;;;;6.13;4.00;;;14.40;99.90;;;;;;5059979;28;20039;-87
2022/09/24 10:15:33;;;;;;;8.70;3.75;;;14.30;99.90;;;;;;5061808;28;20029;-81
2022/09/24 10:18:01;;;;;;;9.20;4.53;;;14.30;99.90;;;;;;5058615;28;20040;-87
2022/09/24 10:20:33;;;;;;;6.35;3.47;;;14.30;99.90;;;;;;5056964;28;20055;-77
2022/09/24 10:23:18;;;;;;;6.57;4.60;;;14.20;99.90;;;;;;5054542;28;20490;-87
2022/09/24 10:25:54;;;;;;;5.07;3.25;;;14.20;99.90;;;;;;5053632;28;20036;-77
2022/09/24 10:31:13;;;;;;;4.40;3.00;;;14.20;99.90;;;;;;5058344;28;20616;-80
2022/09/24 10:33:44;;;;;;;4.68;3.08;;;14.10;99.90;;;;;;5061648;28;20051;-87
2022/09/24 10:36:19;;;;;;;5.95;4.05;;;14.10;99.90;;;;;;5060195;28;22304;-90
2022/09/24 10:38:46;;;;;;;5.75;3.45;;;14.10;99.90;;;;;;5062196;28;20069;-81
2022/09/24 10:41:29;;;;;;;6.20;3.80;;;14.10;99.90;;;;;;5053060;28;20516;-85
2022/09/24 10:44:01;;;;;;;8.52;4.47;;;14.00;99.90;;;;;;5065401;28;20059;-76
2022/09/24 10:46:49;;;;;;;6.70;4.38;;;14.00;99.90;;;;;;5052966;28;20074;-80
2022/09/24 10:49:27;;;;;;;6.53;4.03;;;14.00;99.90;;;;;;5054987;28;20111;-80
2022/09/24 10:52:26;;;;;;;8.70;5.45;;;14.00;99.90;;;;;;5057090;28;20385;-81
2022/09/24 10:54:57;;;;;;;10.15;5.78;;;14.00;99.90;;;;;;5053611;28;20040;-82
2022/09/24 10:57:40;;;;;;;5.70;4.57;;;14.00;99.90;;;;;;5041667;28;20068;-85
2022/09/24 11:00:19;;;;;;;6.35;5.07;;;13.90;99.90;;;;;;5074170;28;20028;-87
2022/09/24 11:02:59;;;;;;;5.47;3.63;;;13.90;99.90;;;;;;5063606;28;20037;-87
2022/09/24 11:05:42;;;;;;;3.33;2.10;;;13.90;99.90;;;;;;5071752;28;20021;-88
2022/09/24 11:08:29;;;;;;;3.92;2.42;;;13.90;99.90;;;;;;5067795;28;20035;-87
2022/09/24 11:11:04;;;;;;;2.58;1.90;;;13.80;99.90;;;;;;5074036;28;20042;-86
2022/09/24 11:14:17;;;;;;;3.70;2.03;;;13.90;99.90;;;;;;5052699;28;20029;-84
2022/09/24 11:17:22;;;;;;;3.25;2.00;;;13.90;99.90;;;;;;5053190;28;20033;-75
2022/09/24 11:20:00;;;;;;;4.88;2.42;;;14.00;99.90;;;;;;5036161;28;20127;-87
2022/09/24 11:22:48;;;;;;;6.72;2.45;;;14.00;99.90;;;;;;5051238;28;20033;-80
2022/09/24 11:25:59;;;;;;;2.28;1.88;;;13.90;99.90;;;;;;5067068;28;20486;-86
2022/09/24 11:29:03;;;;;;;7.07;2.13;;;13.90;99.90;;;;;;5051485;28;20708;-86
2022/09/24 11:31:45;;;;;;;6.07;2.10;;;13.90;99.90;;;;;;5079399;28;20791;-79
2022/09/24 11:34:30;;;;;;;4.05;1.60;;;13.80;99.90;;;;;;5071718;28;20491;-85
2022/09/24 11:37:38;;;;;;;4.90;1.63;;;13.70;99.90;;;;;;5076583;28;20028;-89
2022/09/24 11:40:32;;;;;;;4.03;1.83;;;13.60;99.90;;;;;;5044320;28;20111;-87
2022/09/24 11:43:18;;;;;;;2.80;2.30;;;13.60;99.90;;;;;;5059133;28;20021;-90
2022/09/24 11:46:08;;;;;;;5.20;1.85;;;13.60;99.90;;;;;;5069910;28;20399;-84
2022/09/24 11:48:58;;;;;;;3.83;2.03;;;13.60;99.90;;;;;;5074464;28;20021;-84
2022/09/24 11:52:03;;;;;;;2.65;1.92;;;13.50;99.90;;;;;;5079251;28;20025;-78
2022/09/24 11:54:59;;;;;;;6.00;1.80;;;13.50;99.90;;;;;;5068000;28;20044;-90
2022/09/24 11:57:34;;;;;;;3.93;1.47;;;13.40;99.90;;;;;;5056196;28;20040;-88
2022/09/24 12:00:19;;;;;;;3.20;1.92;;;13.40;99.90;;;;;;5064869;28;20034;-87
2022/09/24 12:03:09;;;;;;;4.05;2.53;;;13.40;99.90;;;;;;5063954;28;20133;-88
2022/09/24 12:05:39;;;;;;;2.85;2.58;;;13.40;99.90;;;;;;5064150;28;20407;-90
2022/09/24 12:08:35;;;;;;;3.65;2.55;;;13.40;99.90;;;;;;5059036;28;20479;-84
2022/09/24 12:11:07;;;;;;;3.45;2.55;;;13.30;99.90;;;;;;5075389;28;20025;-90
2022/09/24 12:14:02;;;;;;;6.15;2.63;;;13.30;99.90;;;;;;5058801;28;20128;-85
2022/09/24 12:16:36;;;;;;;3.22;2.58;;;13.30;99.90;;;;;;5051717;28;20383;-84
2022/09/24 12:19:21;;;;;;;5.05;2.75;;;13.20;99.90;;;;;;5060674;28;20040;-91
2022/09/24 12:21:52;;;;;;;4.90;3.17;;;13.20;99.90;;;;;;5053744;28;20585;-85
2022/09/24 12:24:36;;;;;;;6.45;3.20;;;13.20;99.90;;;;;;5058235;28;20044;-88
2022/09/24 12:27:13;;;;;;;6.97;3.00;;;13.10;99.90;;;;;;5061467;28;20037;-90
2022/09/24 12:32:58;;;;;;;6.40;3.80;;;13.00;99.90;;;;;;5052849;28;20061;-88
2022/09/24 12:35:50;;;;;;;6.50;3.45;;;13.00;99.90;;;;;;5059033;28;20352;-89
2022/09/24 12:38:41;;;;;;;6.53;3.25;;;12.90;99.90;;;;;;5053334;28;20081;-86
2022/09/24 12:41:56;;;;;;;4.97;3.20;;;12.90;99.90;;;;;;5068471;28;20074;-90
2022/09/24 12:44:57;;;;;;;5.75;3.63;;;12.80;99.90;;;;;;5026442;28;20071;-83
2022/09/24 12:47:32;;;;;;;8.50;5.35;;;12.80;99.90;;;;;;5064988;28;20029;-90
2022/09/24 12:50:03;;;;;;;6.03;3.58;;;12.70;99.90;;;;;;5060488;28;20147;-89
2022/09/24 12:52:42;;;;;;;3.90;2.45;;;12.70;99.90;;;;;;5068727;28;20025;-86
2022/09/24 12:55:44;;;;;;;7.07;2.80;;;12.60;99.90;;;;;;5070766;28;20091;-88
2022/09/24 12:58:42;;;;;;;4.28;2.80;;;12.70;99.90;;;;;;5061524;28;20051;-85
2022/09/24 13:01:26;;;;;;;5.22;2.75;;;12.70;99.90;;;;;;5064411;28;20032;-80
2022/09/24 13:04:04;;;;;;;4.10;2.90;;;12.60;99.90;;;;;;5074808;28;20343;-90
2022/09/24 13:06:36;;;;;;;7.25;3.67;;;12.60;99.90;;;;;;5062009;28;20107;-90
2022/09/24 13:09:23;;;;;;;6.70;3.80;;;12.50;99.90;;;;;;5068154;28;20107;-88
2022/09/24 13:12:02;;;;;;;4.50;3.03;;;12.40;99.90;;;;;;5061849;28;20475;-88
2022/09/24 13:14:32;;;;;;;6.05;3.40;;;12.40;99.90;;;;;;5071400;28;20121;-78
2022/09/24 13:17:06;;;;;;;8.52;4.28;;;12.40;99.90;;;;;;5063552;28;20083;-87
2022/09/24 13:19:47;;;;;;;4.18;2.95;;;12.30;99.90;;;;;;5079840;28;20436;-88
2022/09/24 13:22:30;;;;;;;4.18;3.15;;;12.30;99.90;;;;;;5079412;28;20097;-88
2022/09/24 13:25:10;;;;;;;5.38;3.42;;;12.20;99.90;;;;;;5071609;28;20028;-90
2022/09/24 13:27:40;;;;;;;7.07;4.10;;;12.20;99.90;;;;;;5067565;28;20027;-85
2022/09/24 13:30:14;;;;;;;6.97;3.95;;;12.10;99.90;;;;;;5087107;28;20039;-89
2022/09/24 13:33:00;;;;;;;9.07;4.03;;;12.10;99.90;;;;;;5069708;28;20056;-88
2022/09/24 13:35:34;;;;;;;6.83;4.33;;;12.10;99.90;;;;;;5061916;28;20090;-91
2022/09/24 13:38:13;;;;;;;7.47;3.92;;;12.10;99.90;;;;;;5064423;28;20016;-89
2022/09/24 13:40:48;;;;;;;5.63;4.10;;;12.10;99.90;;;;;;5066836;28;20610;-83